Terminal Aerodrome Forecast
Issued by NWS

Home | Current Version | Previous Version | Text Only | Print | Product List | Glossary On
Versions: 1 2 3 4 5 6 7 8 9 10 11 12 13 14 15 16 17 18 19 20 21 22 23 24 25 26 27 28
000
FTUS46 KOTX 201124
TAFPUW
TAF
KPUW 201124Z 2012/2112 26008KT P6SM -RA BKN050 OVC070
     FM201400 26010KT P6SM -RA BKN015 OVC040
     FM202100 29010KT P6SM -SHRA BKN030 OVC150
     FM210200 27006KT P6SM SCT050 BKN150
     FM210700 VRB02KT P6SM SCT010 SCT100 SCT180=

USA.gov is the U.S. government's official web portal to all federal, state and local government web resources and services.